Time;durP1;ratioP1;P1;durP2;ratioP2;P2;SDS_P1;SDS_P2;PMS_P1;PMS_P2;Temp;Humidity;BMP_temperature;BMP_pressure;BME280_temperature;BME280_humidity;BME280_pressure;Samples;Min_cycle;Max_cycle;Signal;HPM_P1;HPM_P2
2022/08/18 00:00:41;;;;;;;12.82;6.30;;;21.50;82.70;;;;;;5003659;28;20392;-67
2022/08/18 00:03:07;;;;;;;9.85;6.47;;;21.50;82.80;;;;;;5020641;28;20053;-66
2022/08/18 00:05:33;;;;;;;12.77;6.75;;;21.60;82.50;;;;;;5016052;28;20073;-67
2022/08/18 00:07:58;;;;;;;12.90;7.18;;;21.50;82.70;;;;;;5014261;28;20104;-66
2022/08/18 00:10:24;;;;;;;7.65;5.90;;;21.40;82.50;;;;;;5015936;28;20045;-68
2022/08/18 00:12:50;;;;;;;9.55;6.90;;;21.30;82.30;;;;;;5025358;28;20060;-66
2022/08/18 00:15:16;;;;;;;8.63;6.60;;;21.20;83.00;;;;;;5019678;28;20045;-68
2022/08/18 00:17:42;;;;;;;10.60;6.43;;;21.20;82.90;;;;;;5025275;28;20541;-67
2022/08/18 00:20:10;;;;;;;9.75;6.93;;;21.20;82.50;;;;;;5019641;28;20049;-66
2022/08/18 00:22:38;;;;;;;10.57;7.13;;;21.10;82.50;;;;;;5004019;28;20464;-66
2022/08/18 00:25:04;;;;;;;10.93;7.38;;;21.10;82.30;;;;;;4995384;28;20158;-67
2022/08/18 00:27:30;;;;;;;8.13;6.57;;;21.00;82.60;;;;;;5020379;28;20045;-65
2022/08/18 00:30:00;;;;;;;14.13;6.85;;;21.00;82.20;;;;;;5008009;28;20084;-66
2022/08/18 00:32:28;;;;;;;11.93;7.00;;;21.10;82.20;;;;;;5015130;28;20045;-66
2022/08/18 00:34:54;;;;;;;12.60;7.38;;;21.00;82.70;;;;;;5016841;28;20402;-67
2022/08/18 00:37:20;;;;;;;16.08;7.88;;;21.00;82.50;;;;;;5021606;28;20046;-67
2022/08/18 00:39:46;;;;;;;11.98;7.20;;;20.90;82.80;;;;;;5045853;28;20367;-68
2022/08/18 00:42:14;;;;;;;10.68;7.80;;;21.00;82.40;;;;;;5043087;28;20049;-67
2022/08/18 00:44:40;;;;;;;9.40;6.75;;;21.00;82.50;;;;;;5020231;28;20774;-67
2022/08/18 00:47:05;;;;;;;9.43;6.95;;;21.00;81.90;;;;;;5016337;28;20049;-66
2022/08/18 00:49:31;;;;;;;10.60;6.97;;;21.10;81.00;;;;;;5007941;28;20055;-66
2022/08/18 00:51:57;;;;;;;10.35;7.05;;;21.00;80.50;;;;;;5024705;28;20052;-68
2022/08/18 00:54:26;;;;;;;14.63;7.38;;;21.00;80.30;;;;;;5009666;28;20076;-66
2022/08/18 00:56:54;;;;;;;9.15;6.80;;;21.00;79.80;;;;;;5025028;28;20122;-67
2022/08/18 00:59:31;;;;;;;12.85;7.32;;;21.00;79.70;;;;;;5002806;28;20271;-68
2022/08/18 01:02:01;;;;;;;11.65;7.22;;;21.10;79.40;;;;;;5010351;28;20049;-69
2022/08/18 01:04:38;;;;;;;10.90;6.32;;;21.10;79.40;;;;;;5015037;28;20041;-67
2022/08/18 01:07:10;;;;;;;9.15;6.30;;;21.10;79.00;;;;;;5014208;28;20041;-67
2022/08/18 01:09:35;;;;;;;9.27;6.10;;;21.20;78.70;;;;;;5007089;28;20037;-67
2022/08/18 01:12:01;;;;;;;8.27;6.20;;;21.20;78.30;;;;;;5044599;28;20505;-67
2022/08/18 01:14:27;;;;;;;8.27;5.82;;;21.20;78.10;;;;;;5000021;28;20118;-67
2022/08/18 01:22:36;;;;;;;9.88;6.22;;;21.20;77.80;;;;;;5007908;28;20106;-67
2022/08/18 01:27:46;;;;;;;11.35;6.80;;;21.20;77.60;;;;;;5007684;28;20123;-67
2022/08/18 01:30:15;;;;;;;;;;;21.20;77.60;;;;;;5010506;28;20069;-68
2022/08/18 01:32:41;;;;;;;8.82;6.53;;;21.20;77.80;;;;;;5016437;28;20246;-66
2022/08/18 01:35:08;;;;;;;8.95;7.22;;;21.20;77.80;;;;;;5022638;28;20041;-67
2022/08/18 01:37:34;;;;;;;11.60;7.82;;;21.10;77.90;;;;;;4983799;28;20061;-67
2022/08/18 01:40:03;;;;;;;10.13;7.43;;;21.10;78.50;;;;;;5022939;28;20062;-67
2022/08/18 01:42:29;;;;;;;9.50;7.43;;;21.00;78.50;;;;;;5018396;28;20056;-68
2022/08/18 01:44:55;;;;;;;9.60;7.00;;;21.00;78.70;;;;;;5013323;28;20042;-67
2022/08/18 01:47:21;;;;;;;11.95;8.18;;;21.00;78.70;;;;;;5017645;28;20731;-67
2022/08/18 01:49:47;;;;;;;9.90;8.30;;;21.10;79.10;;;;;;5017877;28;20054;-68
2022/08/18 01:52:19;;;;;;;8.82;7.93;;;21.00;79.30;;;;;;5018471;28;20049;-66
2022/08/18 01:54:46;;;;;;;11.02;8.13;;;21.00;79.70;;;;;;5021076;28;20042;-68
2022/08/18 01:57:13;;;;;;;10.45;7.82;;;21.00;79.40;;;;;;5013483;28;20057;-67
2022/08/18 01:59:39;;;;;;;15.23;8.27;;;20.90;79.90;;;;;;4995954;28;20038;-67
2022/08/18 02:02:05;;;;;;;10.52;8.68;;;21.00;79.90;;;;;;5042487;28;20049;-67
2022/08/18 02:04:32;;;;;;;12.32;9.10;;;21.00;79.90;;;;;;5006134;28;20124;-68
2022/08/18 02:06:58;;;;;;;11.45;8.40;;;21.00;80.40;;;;;;5018809;28;20129;-66
2022/08/18 02:09:24;;;;;;;12.15;7.55;;;21.00;80.30;;;;;;5009504;28;20037;-67
2022/08/18 02:11:50;;;;;;;12.20;8.23;;;21.10;79.60;;;;;;5020790;28;20060;-67
2022/08/18 02:14:16;;;;;;;11.25;8.55;;;21.10;79.60;;;;;;5019498;28;20053;-67
2022/08/18 02:16:41;;;;;;;12.48;8.65;;;21.20;79.60;;;;;;5021981;28;20439;-66
2022/08/18 02:19:07;;;;;;;9.30;8.40;;;21.20;79.50;;;;;;5026063;28;20077;-67
2022/08/18 02:21:33;;;;;;;11.48;9.38;;;21.20;79.40;;;;;;5018790;28;20064;-67
2022/08/18 02:23:59;;;;;;;13.40;9.07;;;21.10;80.30;;;;;;5020450;28;20045;-67
2022/08/18 02:26:24;;;;;;;11.82;8.85;;;21.20;79.80;;;;;;5022852;28;20068;-67
2022/08/18 02:28:50;;;;;;;10.55;9.45;;;21.20;79.80;;;;;;5060477;28;20049;-66
2022/08/18 02:31:18;;;;;;;12.63;9.63;;;21.20;80.20;;;;;;5013352;28;20469;-66
2022/08/18 02:33:44;;;;;;;11.43;9.63;;;21.10;80.30;;;;;;4985705;28;20054;-67
2022/08/18 02:36:10;;;;;;;12.95;9.60;;;21.10;80.40;;;;;;5008169;28;20092;-67
2022/08/18 02:38:36;;;;;;;15.52;10.02;;;21.10;79.80;;;;;;5014139;28;20048;-66
2022/08/18 02:41:05;;;;;;;10.90;9.38;;;21.10;80.50;;;;;;5015781;28;20057;-67
2022/08/18 02:43:31;;;;;;;12.48;8.70;;;21.10;80.30;;;;;;5020933;28;20368;-66
2022/08/18 02:45:56;;;;;;;12.18;9.27;;;21.10;79.80;;;;;;5009665;28;20038;-68
2022/08/18 02:48:34;;;;;;;10.65;8.35;;;21.10;79.90;;;;;;4997151;28;20665;-66
2022/08/18 02:51:04;;;;;;;11.65;8.40;;;21.20;79.70;;;;;;5025078;28;20052;-67
2022/08/18 02:53:30;;;;;;;9.82;8.75;;;21.10;79.90;;;;;;5017357;28;20119;-67
2022/08/18 02:56:24;;;;;;;10.85;8.77;;;21.10;79.70;;;;;;5018098;28;20229;-68
2022/08/18 02:58:55;;;;;;;13.05;8.55;;;21.10;79.40;;;;;;5009153;28;20463;-67
2022/08/18 03:01:23;;;;;;;9.68;8.07;;;21.10;79.40;;;;;;5021749;28;20080;-66
2022/08/18 03:03:49;;;;;;;11.73;8.33;;;21.00;79.50;;;;;;5006478;28;20127;-67
2022/08/18 03:06:15;;;;;;;10.98;8.93;;;21.00;79.70;;;;;;5062697;28;20537;-67
2022/08/18 03:08:41;;;;;;;10.82;7.97;;;20.90;79.50;;;;;;4983996;28;20095;-66
2022/08/18 03:11:07;;;;;;;8.60;7.70;;;20.90;79.60;;;;;;5018519;28;20179;-67
2022/08/18 03:13:33;;;;;;;12.68;8.85;;;20.90;79.60;;;;;;5020664;28;20436;-67
2022/08/18 03:15:58;;;;;;;9.68;7.85;;;20.90;80.10;;;;;;5007023;28;20534;-67
2022/08/18 03:18:24;;;;;;;12.48;8.35;;;20.90;79.90;;;;;;5010532;28;20050;-68
2022/08/18 03:20:50;;;;;;;13.07;8.15;;;20.80;80.10;;;;;;5012818;28;20068;-67
2022/08/18 03:23:16;;;;;;;9.73;8.38;;;20.80;80.40;;;;;;5022511;28;20738;-66
2022/08/18 03:25:46;;;;;;;11.18;8.68;;;20.80;80.20;;;;;;5021480;28;20067;-67
2022/08/18 03:28:12;;;;;;;12.98;8.60;;;20.80;80.90;;;;;;5014637;28;20122;-68
2022/08/18 03:30:38;;;;;;;10.85;8.40;;;20.70;81.30;;;;;;5025415;28;20379;-66
2022/08/18 03:33:04;;;;;;;10.48;8.15;;;20.70;81.20;;;;;;5016298;28;20049;-67
2022/08/18 03:35:30;;;;;;;12.50;8.38;;;20.70;81.00;;;;;;5019096;28;20092;-67
2022/08/18 03:37:59;;;;;;;12.82;10.27;;;20.70;80.50;;;;;;5024941;28;20440;-67
2022/08/18 03:40:25;;;;;;;13.55;9.65;;;20.60;80.40;;;;;;5025186;28;20049;-67
2022/08/18 03:42:50;;;;;;;11.52;10.32;;;20.60;80.60;;;;;;5020356;28;20049;-65
2022/08/18 03:45:16;;;;;;;12.38;10.93;;;20.60;80.70;;;;;;5011058;28;20045;-65
2022/08/18 03:47:44;;;;;;;13.18;9.95;;;20.50;82.00;;;;;;5010078;28;20050;-66
2022/08/18 03:50:11;;;;;;;12.27;10.38;;;20.50;81.20;;;;;;5001419;28;20057;-67
2022/08/18 03:52:37;;;;;;;13.75;11.95;;;20.30;81.80;;;;;;4993834;28;20464;-65
2022/08/18 03:55:04;;;;;;;16.35;14.57;;;20.30;81.50;;;;;;5001780;28;20261;-67
2022/08/18 03:57:31;;;;;;;17.38;13.40;;;20.20;82.80;;;;;;5017571;28;20655;-66
2022/08/18 03:59:57;;;;;;;16.63;13.95;;;20.20;82.30;;;;;;5016868;28;20041;-67
2022/08/18 04:02:23;;;;;;;14.85;13.10;;;20.20;82.80;;;;;;5024841;28;20049;-67
2022/08/18 04:04:49;;;;;;;16.92;14.40;;;20.20;82.90;;;;;;5028649;28;20041;-66
2022/08/18 04:07:16;;;;;;;15.20;13.45;;;20.30;83.00;;;;;;5005706;28;20065;-67
2022/08/18 04:09:42;;;;;;;16.55;14.05;;;20.30;82.50;;;;;;5024712;28;20071;-67
2022/08/18 04:12:12;;;;;;;16.23;13.32;;;20.40;82.50;;;;;;5022189;28;20493;-66
2022/08/18 04:14:39;;;;;;;21.30;15.68;;;20.30;82.70;;;;;;5026557;28;20060;-67
2022/08/18 04:17:05;;;;;;;19.27;15.77;;;20.30;82.90;;;;;;5008001;28;20080;-66
2022/08/18 04:19:33;;;;;;;21.17;16.48;;;20.30;83.20;;;;;;5025977;28;20084;-67
2022/08/18 04:21:59;;;;;;;17.60;15.68;;;20.30;83.60;;;;;;5027092;28;20079;-67
2022/08/18 04:24:26;;;;;;;21.00;17.98;;;20.30;83.10;;;;;;5007774;28;20046;-66
2022/08/18 04:26:52;;;;;;;22.52;19.05;;;20.30;83.50;;;;;;5022261;28;20066;-67
2022/08/18 04:29:19;;;;;;;23.77;19.95;;;20.20;84.10;;;;;;5038101;28;20056;-67
2022/08/18 04:31:45;;;;;;;24.13;21.02;;;20.30;84.20;;;;;;5025327;28;20136;-66
2022/08/18 04:34:12;;;;;;;25.45;20.77;;;20.30;84.30;;;;;;4996091;28;20054;-67
2022/08/18 04:36:38;;;;;;;24.50;19.77;;;20.30;84.30;;;;;;5032956;28;20069;-67
2022/08/18 04:39:05;;;;;;;22.02;19.40;;;20.40;84.60;;;;;;5031235;28;20084;-67
2022/08/18 04:41:31;;;;;;;21.93;18.30;;;20.40;84.00;;;;;;4980212;28;20049;-67
2022/08/18 04:43:58;;;;;;;28.67;22.50;;;20.50;84.00;;;;;;5026267;28;20077;-67
2022/08/18 04:46:27;;;;;;;26.50;23.13;;;20.50;84.30;;;;;;4994521;28;20057;-66
2022/08/18 04:48:57;;;;;;;23.58;21.05;;;20.50;84.30;;;;;;5007128;28;20266;-67
2022/08/18 04:51:24;;;;;;;26.42;22.98;;;20.50;83.70;;;;;;5010618;28;20836;-67
2022/08/18 04:53:50;;;;;;;24.58;20.92;;;20.50;84.20;;;;;;5012151;28;20116;-66
2022/08/18 04:56:25;;;;;;;25.23;20.13;;;20.50;84.10;;;;;;5026597;28;20053;-67
2022/08/18 04:59:11;;;;;;;24.35;19.98;;;20.60;84.20;;;;;;5023675;28;20045;-66
2022/08/18 05:01:44;;;;;;;25.25;22.35;;;20.60;84.40;;;;;;5023605;28;20144;-67
2022/08/18 05:04:12;;;;;;;27.85;23.30;;;20.60;84.60;;;;;;5012697;28;20530;-66
2022/08/18 05:06:38;;;;;;;31.67;24.75;;;20.60;84.40;;;;;;4992011;28;20049;-67
2022/08/18 05:09:06;;;;;;;28.17;25.08;;;20.60;85.00;;;;;;5015502;28;20036;-67
2022/08/18 05:11:34;;;;;;;34.63;27.02;;;20.50;84.90;;;;;;5001338;28;20060;-68
2022/08/18 05:14:05;;;;;;;31.80;25.83;;;20.50;85.50;;;;;;5023626;28;20107;-66
2022/08/18 05:16:34;;;;;;;28.73;24.92;;;20.50;85.30;;;;;;5003944;28;20125;-66
2022/08/18 05:19:10;;;;;;;28.45;25.27;;;20.50;85.40;;;;;;5012357;28;20045;-67
2022/08/18 05:21:36;;;;;;;31.88;26.35;;;20.50;85.50;;;;;;5041615;28;20045;-66
2022/08/18 05:24:03;;;;;;;32.50;25.77;;;20.50;86.00;;;;;;5021656;28;20364;-67
2022/08/18 05:26:28;;;;;;;27.52;24.20;;;20.50;85.60;;;;;;5002336;28;20061;-67
2022/08/18 05:28:54;;;;;;;28.67;23.38;;;20.50;85.40;;;;;;5041023;28;20475;-67
2022/08/18 05:31:22;;;;;;;29.77;24.48;;;20.60;85.20;;;;;;5022731;28;20083;-67
2022/08/18 05:33:48;;;;;;;29.95;24.95;;;20.60;85.30;;;;;;5023196;28;20344;-67
2022/08/18 05:36:14;;;;;;;30.35;25.58;;;20.60;85.30;;;;;;4988543;28;20164;-68
2022/08/18 05:39:07;;;;;;;29.48;25.58;;;20.70;85.20;;;;;;5022295;28;20617;-67
2022/08/18 05:41:33;;;;;;;31.85;25.27;;;20.60;85.50;;;;;;5013180;28;20045;-67
2022/08/18 05:44:00;;;;;;;33.83;27.80;;;20.60;85.40;;;;;;5007154;28;20418;-69
2022/08/18 05:46:36;;;;;;;32.10;26.33;;;20.70;85.90;;;;;;5007787;28;20077;-68
2022/08/18 05:49:02;;;;;;;28.70;24.98;;;20.60;85.90;;;;;;5016644;28;20077;-68
2022/08/18 05:51:40;;;;;;;29.02;25.38;;;20.70;85.50;;;;;;4985108;28;20348;-68
2022/08/18 05:56:50;;;;;;;30.90;26.38;;;20.70;85.30;;;;;;5023403;28;20042;-68
2022/08/18 05:59:27;;;;;;;27.40;24.23;;;20.70;85.20;;;;;;4991432;28;20383;-67
2022/08/18 06:02:26;;;;;;;30.55;27.25;;;20.70;85.70;;;;;;5017832;28;20138;-67
2022/08/18 06:04:54;;;;;;;26.52;22.20;;;20.70;85.70;;;;;;5031443;28;20546;-68
2022/08/18 06:07:45;;;;;;;29.70;24.67;;;20.80;85.50;;;;;;5022462;28;20049;-68
2022/08/18 06:10:11;;;;;;;26.60;23.58;;;20.80;85.30;;;;;;5018296;28;20042;-68
2022/08/18 06:12:44;;;;;;;26.55;23.50;;;20.80;85.30;;;;;;5020829;28;20042;-68
2022/08/18 06:15:28;;;;;;;27.40;23.25;;;20.90;85.10;;;;;;5018669;28;20049;-72
2022/08/18 06:18:25;;;;;;;29.35;25.17;;;20.90;85.10;;;;;;5022756;28;20476;-70
2022/08/18 06:21:24;;;;;;;29.67;26.52;;;20.90;85.50;;;;;;5026505;28;20092;-69
2022/08/18 06:23:56;;;;;;;31.00;26.73;;;20.80;86.40;;;;;;5036329;28;20399;-70
2022/08/18 06:26:39;;;;;;;27.50;23.80;;;20.80;86.60;;;;;;5024003;28;20057;-70
2022/08/18 06:29:07;;;;;;;30.88;26.73;;;20.80;86.20;;;;;;5013167;28;20110;-70
2022/08/18 06:31:46;;;;;;;33.65;27.13;;;20.90;85.90;;;;;;5019267;28;20049;-70
2022/08/18 06:34:31;;;;;;;30.75;26.30;;;20.90;86.10;;;;;;5019026;28;20053;-70
2022/08/18 06:37:16;;;;;;;29.85;26.58;;;20.80;86.50;;;;;;5007794;28;20136;-71
2022/08/18 06:39:46;;;;;;;29.20;25.80;;;20.80;86.70;;;;;;5007713;28;20062;-70
2022/08/18 06:42:12;;;;;;;30.25;26.63;;;20.80;86.30;;;;;;5015418;28;20058;-71
2022/08/18 06:44:49;;;;;;;28.42;25.27;;;20.90;86.40;;;;;;5042015;28;20612;-71
2022/08/18 06:47:40;;;;;;;31.17;26.13;;;20.90;86.70;;;;;;5004476;28;20049;-71
2022/08/18 06:50:10;;;;;;;29.92;25.50;;;21.00;86.60;;;;;;5015976;28;20045;-71
2022/08/18 06:52:50;;;;;;;30.95;26.33;;;21.00;86.30;;;;;;5006763;28;20124;-71
2022/08/18 06:55:16;;;;;;;31.88;27.42;;;21.00;86.70;;;;;;5002911;28;20049;-72
2022/08/18 06:57:57;;;;;;;29.83;26.05;;;20.90;86.60;;;;;;5003226;28;20070;-72
2022/08/18 07:00:25;;;;;;;32.30;27.45;;;20.90;87.10;;;;;;5022237;28;20556;-70
2022/08/18 07:03:13;;;;;;;29.23;25.67;;;21.00;86.70;;;;;;5021230;28;20037;-71
2022/08/18 07:06:06;;;;;;;30.30;26.77;;;21.10;86.50;;;;;;5019781;28;20057;-71
2022/08/18 07:08:40;;;;;;;27.88;24.88;;;21.10;86.70;;;;;;5015571;28;20057;-71
2022/08/18 07:11:25;;;;;;;29.77;24.92;;;21.20;86.60;;;;;;5021442;28;20049;-72
2022/08/18 07:14:12;;;;;;;28.85;24.15;;;21.30;85.80;;;;;;5030959;28;20487;-73
2022/08/18 07:16:38;;;;;;;30.00;26.88;;;21.50;85.10;;;;;;5008972;28;20516;-70
2022/08/18 07:19:10;;;;;;;34.63;27.30;;;21.50;85.90;;;;;;5001816;28;20068;-71
2022/08/18 07:21:37;;;;;;;29.83;26.70;;;21.20;86.20;;;;;;5015848;28;20099;-71
2022/08/18 07:24:19;;;;;;;32.47;26.90;;;21.30;86.20;;;;;;5012108;28;20250;-70
2022/08/18 07:27:14;;;;;;;30.10;26.15;;;21.20;86.30;;;;;;5002959;28;20432;-70
2022/08/18 07:30:02;;;;;;;32.97;28.10;;;21.30;86.70;;;;;;5007226;28;20049;-68
2022/08/18 07:32:36;;;;;;;39.28;27.98;;;21.10;87.00;;;;;;5024360;28;20132;-68
2022/08/18 07:35:04;;;;;;;30.92;26.73;;;21.00;87.60;;;;;;5001249;28;20042;-69
2022/08/18 07:37:40;;;;;;;28.88;24.55;;;21.10;87.90;;;;;;5043051;28;20037;-68
2022/08/18 07:40:22;;;;;;;30.35;25.88;;;21.20;87.40;;;;;;5016582;28;20766;-67
2022/08/18 07:43:02;;;;;;;33.38;27.30;;;21.20;87.10;;;;;;5017351;28;20069;-69
2022/08/18 07:45:41;;;;;;;33.38;26.85;;;21.20;87.70;;;;;;5016930;28;20839;-68
2022/08/18 07:48:20;;;;;;;33.30;26.88;;;21.30;87.60;;;;;;5002825;28;20495;-68
2022/08/18 07:50:55;;;;;;;30.95;25.63;;;21.20;87.70;;;;;;5011182;28;20049;-69
2022/08/18 07:53:57;;;;;;;30.70;26.17;;;21.30;87.30;;;;;;5026085;28;20176;-68
2022/08/18 07:56:37;;;;;;;29.50;24.38;;;21.40;86.70;;;;;;5023341;28;20479;-68
2022/08/18 08:00:03;;;;;;;32.08;24.60;;;21.50;86.60;;;;;;5021404;28;20072;-69
2022/08/18 08:02:52;;;;;;;27.88;22.55;;;21.70;85.90;;;;;;4998819;28;20100;-70
2022/08/18 08:05:20;;;;;;;29.77;24.02;;;21.70;85.30;;;;;;4994052;28;20053;-69
2022/08/18 08:08:18;;;;;;;29.60;23.70;;;21.70;84.40;;;;;;5008642;28;20368;-70
2022/08/18 08:10:48;;;;;;;;;;;21.70;84.20;;;;;;5015921;28;20046;-69
2022/08/18 08:13:36;;;;;;;28.27;22.67;;;21.70;84.00;;;;;;5020324;28;19924;-70
2022/08/18 08:16:08;;;;;;;27.05;21.73;;;21.80;84.10;;;;;;5016951;28;20045;-69
2022/08/18 08:18:34;;;;;;;27.90;23.92;;;21.90;84.50;;;;;;5018735;28;20083;-70
2022/08/18 08:21:10;;;;;;;25.05;22.15;;;22.00;83.20;;;;;;5017909;28;20512;-69
2022/08/18 08:23:40;;;;;;;26.08;23.35;;;22.00;83.40;;;;;;4995064;28;20045;-69
2022/08/18 08:26:35;;;;;;;28.55;23.88;;;21.90;83.90;;;;;;5002634;28;20057;-70
2022/08/18 08:29:17;;;;;;;27.73;23.95;;;21.90;84.00;;;;;;5017676;28;20042;-68
2022/08/18 08:31:56;;;;;;;29.92;24.00;;;22.00;84.10;;;;;;5014209;28;20151;-69
2022/08/18 08:34:41;;;;;;;27.95;25.05;;;22.10;83.70;;;;;;5025840;28;20055;-68
2022/08/18 08:37:37;;;;;;;30.77;26.35;;;22.10;83.10;;;;;;5017763;28;20318;-68
2022/08/18 08:40:07;;;;;;;31.45;25.65;;;22.10;83.10;;;;;;5014206;28;20073;-69
2022/08/18 08:43:03;;;;;;;23.90;21.38;;;22.20;82.50;;;;;;5005631;28;20037;-68
2022/08/18 08:45:34;;;;;;;27.20;24.35;;;22.40;82.00;;;;;;5023390;28;20099;-68
2022/08/18 08:48:04;;;;;;;29.05;25.77;;;22.50;81.40;;;;;;5006235;28;20124;-68
2022/08/18 08:50:32;;;;;;;26.55;23.67;;;22.60;81.00;;;;;;5016559;28;20055;-68
2022/08/18 08:53:31;;;;;;;29.00;25.60;;;22.70;80.90;;;;;;5017502;28;20045;-68
2022/08/18 08:56:05;;;;;;;28.60;25.55;;;22.70;80.60;;;;;;5007715;28;20801;-67
2022/08/18 08:58:34;;;;;;;29.40;26.45;;;22.70;80.60;;;;;;5012244;28;20052;-68
2022/08/18 09:01:00;;;;;;;26.67;23.90;;;22.90;80.20;;;;;;5063565;28;20049;-68
2022/08/18 09:03:35;;;;;;;33.13;29.58;;;23.00;79.80;;;;;;4994251;28;20037;-68
2022/08/18 09:06:38;;;;;;;30.95;27.08;;;22.90;79.50;;;;;;5024139;28;20045;-68
2022/08/18 09:09:27;;;;;;;32.45;27.63;;;22.70;81.40;;;;;;5031687;28;20065;-68
2022/08/18 09:12:01;;;;;;;34.58;30.67;;;22.70;80.70;;;;;;5021281;28;20432;-69
2022/08/18 09:14:51;;;;;;;33.42;29.83;;;22.30;81.90;;;;;;5025191;28;20049;-68
2022/08/18 09:17:55;;;;;;;26.52;23.60;;;22.20;82.30;;;;;;5031017;28;20204;-68
2022/08/18 09:20:42;;;;;;;30.67;27.17;;;22.60;81.80;;;;;;5045062;28;20049;-68
2022/08/18 09:23:22;;;;;;;33.17;29.65;;;22.60;81.30;;;;;;5022116;28;20742;-68
2022/08/18 09:25:50;;;;;;;30.38;27.13;;;22.50;80.60;;;;;;5013840;28;20119;-68
2022/08/18 09:28:22;;;;;;;;;;;22.60;81.00;;;;;;5005364;28;20900;-68
2022/08/18 09:30:50;;;;;;;35.63;31.83;;;22.60;81.10;;;;;;5061511;28;20339;-69
2022/08/18 09:33:39;;;;;;;42.17;32.72;;;22.50;80.50;;;;;;5018797;28;20049;-67
2022/08/18 09:36:23;;;;;;;37.97;33.08;;;22.30;81.40;;;;;;5034693;28;20267;-67
2022/08/18 09:41:46;;;;;;;44.80;35.58;;;22.10;81.30;;;;;;5010241;28;20111;-70
2022/08/18 09:44:13;;;;;;;42.53;34.72;;;22.10;82.30;;;;;;5072159;28;20745;-69
2022/08/18 09:46:42;;;;;;;37.72;31.95;;;22.20;81.60;;;;;;5001312;28;20046;-68
2022/08/18 09:49:25;;;;;;;38.65;34.10;;;22.40;80.80;;;;;;5034867;28;20102;-68
2022/08/18 09:51:52;;;;;;;35.92;32.05;;;22.40;81.00;;;;;;5030937;28;20061;-68
2022/08/18 09:54:26;;;;;;;35.20;30.60;;;22.40;80.90;;;;;;5022461;28;20055;-69
2022/08/18 09:57:15;;;;;;;47.83;33.92;;;22.50;80.80;;;;;;5028129;28;20061;-69
2022/08/18 09:59:44;;;;;;;35.22;30.05;;;22.40;79.80;;;;;;5036218;28;20049;-69
2022/08/18 10:02:11;;;;;;;33.13;28.00;;;22.50;80.90;;;;;;5019663;28;20681;-65
2022/08/18 10:04:49;;;;;;;31.00;27.73;;;22.70;80.30;;;;;;5017510;28;20510;-65
2022/08/18 10:07:16;;;;;;;29.38;25.77;;;22.80;79.10;;;;;;5017538;28;20073;-64
2022/08/18 10:10:09;;;;;;;30.80;26.23;;;22.90;78.90;;;;;;5028676;28;20040;-67
2022/08/18 10:12:35;;;;;;;29.08;25.45;;;23.00;78.00;;;;;;5021768;28;20083;-66
2022/08/18 10:15:25;;;;;;;31.27;27.98;;;23.00;77.30;;;;;;5025819;28;20163;-65
2022/08/18 10:17:59;;;;;;;26.42;23.58;;;23.00;77.50;;;;;;5033714;28;20052;-65
2022/08/18 10:20:55;;;;;;;29.13;24.67;;;23.10;77.10;;;;;;5033387;28;20137;-65
2022/08/18 10:23:48;;;;;;;31.83;27.00;;;23.30;76.30;;;;;;5011150;28;20047;-65
2022/08/18 10:26:36;;;;;;;26.27;22.38;;;23.30;75.30;;;;;;5018820;28;20057;-66
2022/08/18 10:29:12;;;;;;;28.20;24.10;;;23.30;74.30;;;;;;5013713;28;20044;-66
2022/08/18 10:31:55;;;;;;;29.33;22.30;;;23.10;74.30;;;;;;5021585;28;20124;-66
2022/08/18 10:34:36;;;;;;;26.02;23.33;;;22.90;75.00;;;;;;5041080;28;20378;-65
2022/08/18 10:37:15;;;;;;;26.05;22.55;;;22.80;74.80;;;;;;5020872;28;20084;-65
2022/08/18 10:39:45;;;;;;;27.73;24.83;;;22.70;76.40;;;;;;5022972;28;20053;-63
2022/08/18 10:42:34;;;;;;;28.70;24.42;;;22.60;76.30;;;;;;5023188;28;20076;-64
2022/08/18 10:45:22;;;;;;;29.60;24.52;;;22.50;76.60;;;;;;5023616;28;20112;-65
2022/08/18 10:48:10;;;;;;;26.03;21.90;;;22.60;76.80;;;;;;5029151;28;20044;-64
2022/08/18 10:50:48;;;;;;;28.15;23.92;;;22.70;76.90;;;;;;5066256;28;20045;-65
2022/08/18 10:53:29;;;;;;;24.60;21.88;;;22.90;76.40;;;;;;5027856;28;20049;-65
2022/08/18 10:56:27;;;;;;;29.95;22.88;;;23.20;76.00;;;;;;5031394;28;20073;-64
2022/08/18 10:58:58;;;;;;;22.17;19.90;;;23.30;75.60;;;;;;5033207;28;20136;-64
2022/08/18 11:01:51;;;;;;;24.02;21.02;;;23.50;75.50;;;;;;5070512;28;20044;-64
2022/08/18 11:04:23;;;;;;;22.50;20.10;;;23.70;74.90;;;;;;5018341;28;20040;-65
2022/08/18 11:06:50;;;;;;;28.83;21.25;;;23.80;74.50;;;;;;5028490;28;20049;-66
2022/08/18 11:09:24;;;;;;;22.50;18.90;;;24.00;73.30;;;;;;5048055;28;20041;-64
2022/08/18 11:11:51;;;;;;;21.77;19.48;;;24.10;73.20;;;;;;5030879;28;20560;-65
2022/08/18 11:14:38;;;;;;;21.38;18.88;;;24.30;72.20;;;;;;5019745;28;20114;-66
2022/08/18 11:17:07;;;;;;;23.30;20.25;;;24.20;72.20;;;;;;5033058;28;20494;-63
2022/08/18 11:19:51;;;;;;;22.02;19.10;;;24.20;71.50;;;;;;5022520;28;20076;-64
2022/08/18 11:22:30;;;;;;;22.80;20.13;;;24.30;70.90;;;;;;4996203;28;20096;-64
2022/08/18 11:24:56;;;;;;;23.80;20.90;;;24.40;70.90;;;;;;5011234;28;20081;-64
2022/08/18 11:27:27;;;;;;;25.83;20.58;;;24.50;70.20;;;;;;5008351;28;20045;-66
2022/08/18 11:29:53;;;;;;;24.40;21.13;;;24.70;69.60;;;;;;5012216;28;20543;-64
2022/08/18 11:32:22;;;;;;;26.02;21.67;;;24.80;68.90;;;;;;5044447;28;20052;-65
2022/08/18 11:34:58;;;;;;;23.92;20.20;;;24.90;69.00;;;;;;5036471;28;20041;-65
2022/08/18 11:37:42;;;;;;;23.48;20.60;;;24.90;69.20;;;;;;4998369;28;20052;-64
2022/08/18 11:40:17;;;;;;;25.95;22.17;;;25.00;68.80;;;;;;5010682;28;20160;-64
2022/08/18 11:43:08;;;;;;;24.52;20.30;;;25.00;67.70;;;;;;5052840;28;20053;-64
2022/08/18 11:45:46;;;;;;;22.52;19.67;;;25.10;68.30;;;;;;5014792;28;20096;-65
2022/08/18 11:48:15;;;;;;;;;;;25.40;67.80;;;;;;5009306;28;20042;-68
2022/08/18 11:51:02;;;;;;;26.00;19.30;;;25.30;67.70;;;;;;5014503;28;19913;-69
2022/08/18 11:53:37;;;;;;;22.80;18.55;;;25.30;67.30;;;;;;5018033;28;20045;-68
2022/08/18 11:56:16;;;;;;;21.83;17.90;;;25.30;67.20;;;;;;5009602;28;20423;-69
2022/08/18 11:58:54;;;;;;;19.83;17.63;;;25.40;67.00;;;;;;5024019;28;20038;-69
2022/08/18 12:01:43;;;;;;;20.30;17.27;;;25.60;67.00;;;;;;4998318;28;20041;-68
2022/08/18 12:04:21;;;;;;;19.17;17.13;;;25.70;66.30;;;;;;5021260;28;20175;-68
2022/08/18 12:06:58;;;;;;;19.23;16.70;;;25.60;65.30;;;;;;5009126;28;20042;-68
2022/08/18 12:09:43;;;;;;;17.52;15.15;;;25.60;65.90;;;;;;4995606;28;20503;-68
2022/08/18 12:12:23;;;;;;;17.13;15.32;;;25.70;66.40;;;;;;5014717;28;20050;-68
2022/08/18 12:15:12;;;;;;;26.38;18.23;;;25.60;66.30;;;;;;5012541;28;20063;-68
2022/08/18 12:17:38;;;;;;;18.80;15.65;;;25.60;66.20;;;;;;5009035;28;20076;-68
2022/08/18 12:20:07;;;;;;;20.23;18.08;;;25.90;65.60;;;;;;5008076;28;20472;-69
2022/08/18 12:22:33;;;;;;;22.13;18.42;;;25.90;64.30;;;;;;5007992;28;20050;-68
2022/08/18 12:24:59;;;;;;;22.05;19.20;;;25.80;65.40;;;;;;5015243;28;20046;-68
2022/08/18 12:27:26;;;;;;;20.30;18.20;;;25.80;64.60;;;;;;4996721;28;20120;-68
2022/08/18 12:29:52;;;;;;;18.50;16.60;;;26.10;65.20;;;;;;5020323;28;20065;-68
2022/08/18 12:32:19;;;;;;;17.77;15.50;;;26.30;65.10;;;;;;4995943;28;20497;-68
2022/08/18 12:34:45;;;;;;;17.65;15.80;;;26.50;63.00;;;;;;5014299;28;20050;-68
2022/08/18 12:37:18;;;;;;;15.35;13.75;;;26.30;60.90;;;;;;5011486;28;20046;-68
2022/08/18 12:39:44;;;;;;;16.20;14.18;;;26.40;61.60;;;;;;5012215;28;20119;-68
2022/08/18 12:42:10;;;;;;;14.27;12.88;;;26.50;62.30;;;;;;5008915;28;20054;-68
2022/08/18 12:44:36;;;;;;;15.57;12.55;;;26.60;61.30;;;;;;4979242;28;20626;-68
2022/08/18 12:47:02;;;;;;;14.98;13.40;;;26.60;61.40;;;;;;5014800;28;20060;-70
2022/08/18 12:49:27;;;;;;;12.93;11.57;;;26.50;59.50;;;;;;5015549;28;21188;-67
2022/08/18 12:51:54;;;;;;;12.98;11.57;;;26.50;59.60;;;;;;5017026;28;20858;-67
2022/08/18 12:54:20;;;;;;;12.82;10.55;;;26.60;60.80;;;;;;5012634;28;20061;-68
2022/08/18 12:56:50;;;;;;;13.55;11.23;;;26.50;60.20;;;;;;5045691;28;20132;-67
2022/08/18 12:59:17;;;;;;;12.93;11.50;;;26.60;60.60;;;;;;5009930;28;20087;-69
2022/08/18 13:01:43;;;;;;;14.20;12.70;;;26.60;60.00;;;;;;5018718;28;20360;-69
2022/08/18 13:04:09;;;;;;;17.60;14.48;;;26.50;60.40;;;;;;4979199;28;20053;-70
2022/08/18 13:06:36;;;;;;;14.07;12.68;;;26.40;61.00;;;;;;4999167;28;20041;-70
2022/08/18 13:09:02;;;;;;;14.82;12.60;;;26.20;61.50;;;;;;5041046;28;20042;-71
2022/08/18 13:11:28;;;;;;;15.85;11.90;;;26.10;61.50;;;;;;5016518;28;20049;-70
2022/08/18 13:13:55;;;;;;;13.02;11.43;;;26.20;61.70;;;;;;5011936;28;20060;-70